createdAt,value
2023-04-04T00:01:50.176Z,2.10
2023-04-04T00:04:50.209Z,2.09
2023-04-04T00:07:51.173Z,2.08
2023-04-04T00:10:56.208Z,2.07
2023-04-04T00:13:57.189Z,2.06
2023-04-04T00:16:57.203Z,2.09
2023-04-04T00:19:58.267Z,2.11
2023-04-04T00:22:58.199Z,2.11
2023-04-04T00:26:02.209Z,2.12
2023-04-04T00:29:02.235Z,2.13
2023-04-04T00:32:03.309Z,2.12
2023-04-04T00:35:06.338Z,2.13
2023-04-04T00:38:08.232Z,2.13
2023-04-04T00:41:08.237Z,2.14
2023-04-04T00:44:10.266Z,2.16
2023-04-04T00:47:10.609Z,2.16
2023-04-04T00:50:10.287Z,2.15
2023-04-04T00:53:11.343Z,2.18
2023-04-04T00:56:11.284Z,2.20
2023-04-04T00:59:11.373Z,2.21
2023-04-04T01:02:11.298Z,2.22
2023-04-04T01:05:12.360Z,2.23
2023-04-04T01:08:16.283Z,2.24
2023-04-04T01:11:17.663Z,2.20
2023-04-04T01:14:17.319Z,2.20
2023-04-04T01:17:19.287Z,2.21
2023-04-04T01:20:22.330Z,2.22
2023-04-04T01:23:23.347Z,2.21
2023-04-04T01:26:23.331Z,2.19
2023-04-04T01:29:26.345Z,2.18
2023-04-04T01:32:29.339Z,2.20
2023-04-04T01:35:48.348Z,2.17
2023-04-04T01:38:49.396Z,2.16
2023-04-04T01:41:50.351Z,2.17
2023-04-04T01:44:51.467Z,2.20
2023-04-04T01:47:56.457Z,2.24
2023-04-04T01:50:57.337Z,2.29
2023-04-04T01:53:57.508Z,2.30
2023-04-04T01:56:57.465Z,2.33
2023-04-04T01:59:59.663Z,2.38
2023-04-04T02:03:09.467Z,2.44
2023-04-04T02:06:09.369Z,2.49
2023-04-04T02:09:09.391Z,2.52
2023-04-04T02:12:09.388Z,2.56
2023-04-04T02:15:09.532Z,2.56
2023-04-04T02:18:12.393Z,2.53
2023-04-04T02:21:13.435Z,2.48
2023-04-04T02:24:13.583Z,2.43
2023-04-04T02:27:15.438Z,2.38
2023-04-04T02:30:15.542Z,2.32
2023-04-04T02:33:20.477Z,2.32
2023-04-04T02:36:22.563Z,2.32
2023-04-04T02:39:22.464Z,2.29
2023-04-04T02:42:22.453Z,2.26
2023-04-04T02:45:24.466Z,2.22
2023-04-04T02:48:29.495Z,2.19
2023-04-04T02:51:29.460Z,2.17
2023-04-04T02:54:29.475Z,2.18
2023-04-04T02:57:29.508Z,2.19
2023-04-04T03:00:29.519Z,2.20
2023-04-04T03:03:29.803Z,2.17
2023-04-04T03:06:30.625Z,2.13
2023-04-04T03:09:31.484Z,2.11
2023-04-04T03:12:33.504Z,2.10
2023-04-04T03:15:33.522Z,2.09
2023-04-04T03:18:34.566Z,2.12
2023-04-04T03:21:39.507Z,2.12
2023-04-04T03:24:40.275Z,2.11
2023-04-04T03:27:41.517Z,2.06
2023-04-04T03:30:46.572Z,2.03
2023-04-04T03:33:49.508Z,1.99
2023-04-04T03:36:49.557Z,1.96
2023-04-04T03:39:52.591Z,1.95
2023-04-04T03:42:53.600Z,1.89
2023-04-04T03:45:55.640Z,1.86
2023-04-04T03:48:56.772Z,1.83
2023-04-04T03:52:10.587Z,1.83
2023-04-04T03:55:27.411Z,1.82
2023-04-04T03:58:27.744Z,1.79
2023-04-04T04:01:27.593Z,1.76
2023-04-04T04:04:27.623Z,1.74
2023-04-04T04:07:29.582Z,1.69
2023-04-04T04:10:37.688Z,1.66
2023-04-04T04:13:38.608Z,1.66
2023-04-04T04:16:39.690Z,1.67
2023-04-04T04:19:43.647Z,1.69
2023-04-04T04:22:43.633Z,1.72
2023-04-04T04:25:44.677Z,1.75
2023-04-04T04:28:46.644Z,1.74
2023-04-04T04:31:53.851Z,1.72
2023-04-04T04:34:54.784Z,1.70
2023-04-04T04:37:57.651Z,1.71
2023-04-04T04:40:57.677Z,1.71
2023-04-04T04:44:10.143Z,1.72
2023-04-04T04:47:12.107Z,1.73
2023-04-04T04:50:15.190Z,1.76
2023-04-04T04:53:17.946Z,1.81
2023-04-04T04:56:22.727Z,1.85
2023-04-04T04:59:26.726Z,1.85
2023-04-04T05:02:28.810Z,1.87
2023-04-04T05:05:28.787Z,1.91
2023-04-04T05:08:30.710Z,1.92
2023-04-04T05:11:44.708Z,1.93
2023-04-04T05:14:46.980Z,1.89
2023-04-04T05:17:49.259Z,1.93
2023-04-04T05:20:51.715Z,1.96
2023-04-04T05:23:55.168Z,2.00
2023-04-04T05:27:01.589Z,2.02
2023-04-04T05:30:05.911Z,2.01
2023-04-04T05:33:14.842Z,2.01
2023-04-04T05:36:23.881Z,2.06
2023-04-04T05:39:28.825Z,2.07
2023-04-04T05:42:33.784Z,2.15
2023-04-04T05:46:05.934Z,2.17
2023-04-04T05:53:00.761Z,2.15
2023-04-04T05:56:00.856Z,2.14
2023-04-04T05:59:18.970Z,2.12
2023-04-04T06:02:25.937Z,2.14
2023-04-04T06:06:37.272Z,2.17
2023-04-04T06:09:48.772Z,2.21
2023-04-04T06:12:52.924Z,2.24
2023-04-04T06:15:56.187Z,2.29
2023-04-04T06:18:55.853Z,2.31
2023-04-04T06:21:58.487Z,2.33
2023-04-04T06:25:00.912Z,2.38
2023-04-04T06:28:01.970Z,2.40
2023-04-04T06:31:05.031Z,2.39
2023-04-04T06:34:26.138Z,2.40
2023-04-04T06:37:27.877Z,2.39
2023-04-04T06:40:50.979Z,2.36
2023-04-04T06:43:54.973Z,2.38
2023-04-04T06:46:59.631Z,2.39
2023-04-04T06:50:00.118Z,2.38
2023-04-04T06:57:05.130Z,2.34
2023-04-04T07:00:08.368Z,2.35
2023-04-04T07:03:10.467Z,2.34
2023-04-04T07:06:18.174Z,2.39
2023-04-04T07:09:28.566Z,2.45
2023-04-04T07:12:31.689Z,2.45
2023-04-04T07:15:34.167Z,2.47
2023-04-04T07:18:36.079Z,2.50
2023-04-04T07:21:36.959Z,2.47
2023-04-04T07:24:39.082Z,2.40
2023-04-04T07:27:41.976Z,2.38
2023-04-04T07:30:42.266Z,2.40
2023-04-04T07:33:50.274Z,2.40
2023-04-04T07:37:19.618Z,2.40
2023-04-04T07:40:24.236Z,2.47
2023-04-04T07:43:28.209Z,2.49
2023-04-04T07:46:33.037Z,2.48
2023-04-04T07:49:43.186Z,2.51
2023-04-04T07:52:44.962Z,2.49
2023-04-04T07:56:06.874Z,2.51
2023-04-04T07:59:10.215Z,2.58
2023-04-04T08:02:11.218Z,2.65
2023-04-04T08:09:31.981Z,2.88
2023-04-04T08:12:34.456Z,2.92
2023-04-04T08:15:39.599Z,3.00
2023-04-04T08:18:41.040Z,3.04
2023-04-04T08:21:41.043Z,3.11
2023-04-04T08:24:41.120Z,3.20
2023-04-04T08:27:42.033Z,3.20
2023-04-04T08:31:08.349Z,3.25
2023-04-04T08:34:09.123Z,3.28
2023-04-04T08:37:09.047Z,3.25
2023-04-04T08:40:09.101Z,3.25
2023-04-04T08:43:09.233Z,3.23
2023-04-04T08:46:18.363Z,3.25
2023-04-04T08:49:19.813Z,3.32
2023-04-04T08:52:29.125Z,3.40
2023-04-04T08:55:30.081Z,3.51
2023-04-04T08:58:30.096Z,3.54
2023-04-04T09:01:30.209Z,3.52
2023-04-04T09:04:31.182Z,3.48
2023-04-04T09:07:32.075Z,3.53
2023-04-04T09:10:33.363Z,3.62
2023-04-04T09:13:34.107Z,3.66
2023-04-04T09:16:34.182Z,3.68
2023-04-04T09:19:34.749Z,3.75
2023-04-04T09:22:36.198Z,3.81
2023-04-04T09:25:36.137Z,3.85
2023-04-04T09:28:37.178Z,3.89
2023-04-04T09:31:41.212Z,3.97
2023-04-04T09:38:24.277Z,4.08
2023-04-04T09:41:22.192Z,4.13
2023-04-04T09:44:32.772Z,4.15
2023-04-04T09:47:39.802Z,4.21
2023-04-04T09:50:40.769Z,4.35
2023-04-04T09:53:41.248Z,4.54
2023-04-04T09:56:41.183Z,4.64
2023-04-04T09:59:43.412Z,4.61
2023-04-04T10:03:04.245Z,4.54
2023-04-04T10:06:16.218Z,4.51
2023-04-04T10:09:20.421Z,4.59
2023-04-04T10:12:23.240Z,4.64
2023-04-04T10:15:28.445Z,4.71
2023-04-04T10:18:28.290Z,4.79
2023-04-04T10:21:28.274Z,4.85
2023-04-04T10:24:29.238Z,4.95
2023-04-04T10:27:29.251Z,4.93
2023-04-04T10:30:41.542Z,4.95
2023-04-04T10:34:03.510Z,4.95
2023-04-04T10:37:04.242Z,4.95
2023-04-04T10:40:05.596Z,4.94
2023-04-04T10:43:06.427Z,5.11
2023-04-04T10:46:08.018Z,5.20
2023-04-04T10:49:10.301Z,5.26
2023-04-04T10:52:11.255Z,5.32
2023-04-04T10:55:12.423Z,5.35
2023-04-04T10:58:12.270Z,5.38
2023-04-04T11:01:13.393Z,5.41
2023-04-04T11:04:31.400Z,5.41
2023-04-04T11:07:32.444Z,5.36
2023-04-04T11:10:36.361Z,5.33
2023-04-04T11:13:46.298Z,5.34
2023-04-04T11:17:01.364Z,5.29
2023-04-04T11:20:12.367Z,5.18
2023-04-04T11:23:18.316Z,5.15
2023-04-04T11:26:18.409Z,5.14
2023-04-04T11:29:20.802Z,5.08
2023-04-04T11:32:39.646Z,5.02
2023-04-04T11:35:32.360Z,4.98
2023-04-04T11:38:32.440Z,4.96
2023-04-04T11:41:32.354Z,4.99
2023-04-04T11:44:35.390Z,4.98
2023-04-04T11:47:38.508Z,4.90
2023-04-04T11:51:00.698Z,4.84
2023-04-04T11:54:00.434Z,4.91
2023-04-04T11:57:00.394Z,4.94
2023-04-04T12:00:03.444Z,4.91
2023-04-04T12:03:03.853Z,4.84
2023-04-04T12:06:04.562Z,4.82
2023-04-04T12:09:08.027Z,4.83
2023-04-04T12:12:08.509Z,4.83
2023-04-04T12:15:16.944Z,4.79
2023-04-04T12:18:20.450Z,4.74
2023-04-04T12:21:23.440Z,4.76
2023-04-04T12:24:24.445Z,4.81
2023-04-04T12:27:25.614Z,4.92
2023-04-04T12:30:27.602Z,4.96
2023-04-04T12:33:29.442Z,4.98
2023-04-04T12:36:30.451Z,5.04
2023-04-04T12:39:30.535Z,5.10
2023-04-04T12:42:33.472Z,5.12
2023-04-04T12:45:35.501Z,5.12
2023-04-04T12:48:40.572Z,5.16
2023-04-04T12:51:43.507Z,5.20
2023-04-04T12:54:48.749Z,5.28
2023-04-04T12:57:51.520Z,5.35
2023-04-04T13:00:51.506Z,5.39
2023-04-04T13:03:57.574Z,5.47
2023-04-04T13:06:58.537Z,5.57
2023-04-04T13:10:08.535Z,5.62
2023-04-04T13:13:12.605Z,5.67
2023-04-04T13:16:13.523Z,5.77
2023-04-04T13:19:13.621Z,5.80
2023-04-04T13:22:13.576Z,5.82
2023-04-04T13:25:13.638Z,5.86
2023-04-04T13:28:13.569Z,5.89
2023-04-04T13:31:17.747Z,5.91
2023-04-04T13:34:17.541Z,5.91
2023-04-04T13:37:17.640Z,5.98
2023-04-04T13:40:18.620Z,6.00
2023-04-04T13:43:20.745Z,5.94
2023-04-04T13:46:20.734Z,5.88
2023-04-04T13:49:20.689Z,5.84
2023-04-04T13:52:20.679Z,5.82
2023-04-04T13:55:20.628Z,5.83
2023-04-04T13:58:22.593Z,5.76
2023-04-04T14:01:23.663Z,5.70
2023-04-04T14:04:24.723Z,5.71
2023-04-04T14:07:25.636Z,5.72
2023-04-04T14:10:34.857Z,5.70
2023-04-04T14:13:35.707Z,5.68
2023-04-04T14:16:35.705Z,5.71
2023-04-04T14:19:36.707Z,5.76
2023-04-04T14:22:37.778Z,5.81
2023-04-04T14:25:41.956Z,5.79
2023-04-04T14:28:44.853Z,5.67
2023-04-04T14:31:46.868Z,5.58
2023-04-04T14:34:47.664Z,5.54
2023-04-04T14:37:47.715Z,5.49
2023-04-04T14:40:51.746Z,5.41
2023-04-04T14:43:52.680Z,5.28
2023-04-04T14:46:55.752Z,5.19
2023-04-04T14:49:56.018Z,5.14
2023-04-04T14:52:58.696Z,5.15
2023-04-04T14:55:59.725Z,5.15
2023-04-04T14:59:03.032Z,5.11
2023-04-04T15:02:03.762Z,5.08
2023-04-04T15:05:03.745Z,5.07
2023-04-04T15:08:03.741Z,5.06
2023-04-04T15:11:05.752Z,5.08
2023-04-04T15:14:07.809Z,5.10
2023-04-04T15:17:07.742Z,5.10
2023-04-04T15:20:07.805Z,5.13
2023-04-04T15:23:08.861Z,5.12
2023-04-04T15:26:11.782Z,5.11
2023-04-04T15:29:12.779Z,5.11
2023-04-04T15:32:12.888Z,5.10
2023-04-04T15:35:12.791Z,5.06
2023-04-04T15:38:13.885Z,5.03
2023-04-04T15:41:13.850Z,5.01
2023-04-04T15:44:14.319Z,5.00
2023-04-04T15:47:14.844Z,4.99
2023-04-04T15:50:14.836Z,4.98
2023-04-04T15:53:15.824Z,4.97
2023-04-04T15:56:16.792Z,4.94
2023-04-04T15:59:16.881Z,4.95
2023-04-04T16:02:18.863Z,4.95
2023-04-04T16:05:18.836Z,4.97
2023-04-04T16:08:18.825Z,5.01
2023-04-04T16:11:19.860Z,4.98
2023-04-04T16:14:19.811Z,4.99
2023-04-04T16:17:26.963Z,4.96
2023-04-04T16:20:27.846Z,4.92
2023-04-04T16:23:28.952Z,4.90
2023-04-04T16:26:30.867Z,4.88
2023-04-04T16:29:30.880Z,4.84
2023-04-04T16:32:31.911Z,4.80
2023-04-04T16:35:32.960Z,4.80
2023-04-04T16:38:34.026Z,4.77
2023-04-04T16:41:35.025Z,4.74
2023-04-04T16:44:36.898Z,4.73
2023-04-04T16:47:37.389Z,4.72
2023-04-04T16:50:44.928Z,4.70
2023-04-04T16:53:45.998Z,4.63
2023-04-04T16:56:51.876Z,4.60
2023-04-04T16:59:53.017Z,4.56
2023-04-04T17:02:54.145Z,4.52
2023-04-04T17:06:02.528Z,4.48
2023-04-04T17:09:03.968Z,4.45
2023-04-04T17:12:11.961Z,4.40
2023-04-04T17:15:14.033Z,4.37
2023-04-04T17:18:15.930Z,4.36
2023-04-04T17:21:18.175Z,4.34
2023-04-04T17:24:17.959Z,4.32
2023-04-04T17:27:19.262Z,4.33
2023-04-04T17:30:19.431Z,4.32
2023-04-04T17:33:22.034Z,4.30
2023-04-04T17:36:21.996Z,4.29
2023-04-04T17:39:22.998Z,4.23
2023-04-04T17:42:23.046Z,4.15
2023-04-04T17:45:25.206Z,4.04
2023-04-04T17:48:24.959Z,3.98
2023-04-04T17:51:25.288Z,3.93
2023-04-04T17:54:26.036Z,3.87
2023-04-04T17:57:32.214Z,3.84
2023-04-04T18:00:51.119Z,3.82
2023-04-04T18:03:53.092Z,3.79
2023-04-04T18:06:55.067Z,3.78
2023-04-04T18:09:56.087Z,3.79
2023-04-04T18:13:00.272Z,3.79
2023-04-04T18:16:00.188Z,3.79
2023-04-04T18:19:00.041Z,3.77
2023-04-04T18:22:00.169Z,3.77
2023-04-04T18:25:52.104Z,3.77
2023-04-04T18:28:52.975Z,3.71
2023-04-04T18:31:54.288Z,3.61
2023-04-04T18:34:54.025Z,3.58
2023-04-04T18:37:55.352Z,3.59
2023-04-04T18:40:57.097Z,3.60
2023-04-04T18:43:59.075Z,3.58
2023-04-04T18:47:01.149Z,3.58
2023-04-04T18:50:01.143Z,3.60
2023-04-04T18:53:03.070Z,3.63
2023-04-04T18:56:05.208Z,3.67
2023-04-04T18:59:08.000Z,3.68
2023-04-04T19:02:09.126Z,3.61
2023-04-04T19:05:09.150Z,3.54
2023-04-04T19:08:10.140Z,3.52
2023-04-04T19:11:10.190Z,3.50
2023-04-04T19:14:10.605Z,3.49
2023-04-04T19:17:14.236Z,3.52
2023-04-04T19:20:14.168Z,3.55
2023-04-04T19:23:14.615Z,3.57
2023-04-04T19:26:17.579Z,3.55
2023-04-04T19:29:21.674Z,3.52
2023-04-04T19:32:25.170Z,3.48
2023-04-04T19:35:33.491Z,3.44
2023-04-04T19:38:36.206Z,3.42
2023-04-04T19:41:47.609Z,3.41
2023-04-04T19:44:51.169Z,3.35
2023-04-04T19:47:51.228Z,3.32
2023-04-04T19:50:52.490Z,3.34
2023-04-04T19:53:54.278Z,3.38
2023-04-04T19:56:54.223Z,3.44
2023-04-04T20:00:01.284Z,3.45
2023-04-04T20:03:06.380Z,3.43
2023-04-04T20:06:07.224Z,3.43
2023-04-04T20:09:09.323Z,3.45
2023-04-04T20:12:09.234Z,3.46
2023-04-04T20:15:11.237Z,3.46
2023-04-04T20:18:11.320Z,3.47
2023-04-04T20:21:12.314Z,3.47
2023-04-04T20:24:16.562Z,3.46
2023-04-04T20:27:16.765Z,3.42
2023-04-04T20:30:18.277Z,3.39
2023-04-04T20:33:40.411Z,3.39
2023-04-04T20:36:43.562Z,3.39
2023-04-04T20:39:56.413Z,3.36
2023-04-04T20:42:57.282Z,3.31
2023-04-04T20:45:58.280Z,3.30
2023-04-04T20:49:03.276Z,3.28
2023-04-04T20:52:03.275Z,3.27
2023-04-04T20:55:03.358Z,3.24
2023-04-04T20:58:03.315Z,3.20
2023-04-04T21:01:03.311Z,3.17
2023-04-04T21:04:04.370Z,3.11
2023-04-04T21:07:04.352Z,3.09
2023-04-04T21:10:04.386Z,3.09
2023-04-04T21:13:04.332Z,3.09
2023-04-04T21:16:04.498Z,3.06
2023-04-04T21:19:07.400Z,3.02
2023-04-04T21:22:07.394Z,3.00
2023-04-04T21:25:07.444Z,2.96
2023-04-04T21:28:08.390Z,2.94
2023-04-04T21:31:08.412Z,2.93
2023-04-04T21:34:09.905Z,2.91
2023-04-04T21:37:13.401Z,2.89
2023-04-04T21:40:13.451Z,2.89
2023-04-04T21:43:14.373Z,2.89
2023-04-04T21:46:16.450Z,2.87
2023-04-04T21:49:17.391Z,2.87
2023-04-04T21:52:20.631Z,2.88
2023-04-04T21:55:21.515Z,2.89
2023-04-04T21:58:21.374Z,2.88
2023-04-04T22:01:21.434Z,2.85
2023-04-04T22:04:25.544Z,2.83
2023-04-04T22:07:25.390Z,2.81
2023-04-04T22:10:28.487Z,2.78
2023-04-04T22:13:38.481Z,2.81
2023-04-04T22:16:38.505Z,2.77
2023-04-04T22:19:49.479Z,2.70
2023-04-04T22:22:51.438Z,2.69
2023-04-04T22:25:52.456Z,2.68
2023-04-04T22:28:53.444Z,2.66
2023-04-04T22:31:54.522Z,2.67
2023-04-04T22:34:55.485Z,2.68
2023-04-04T22:37:56.492Z,2.68
2023-04-04T22:40:56.508Z,2.70
2023-04-04T22:43:57.616Z,2.72
2023-04-04T22:46:58.590Z,2.77
2023-04-04T22:50:02.525Z,2.80
2023-04-04T22:53:04.518Z,2.78
2023-04-04T22:56:06.545Z,2.77
2023-04-04T22:59:06.584Z,2.78
2023-04-04T23:02:06.510Z,2.75
2023-04-04T23:05:06.523Z,2.75
2023-04-04T23:08:07.543Z,2.79
2023-04-04T23:11:08.540Z,2.76
2023-04-04T23:14:10.601Z,2.72
2023-04-04T23:17:12.544Z,2.76
2023-04-04T23:20:18.597Z,2.77
2023-04-04T23:23:18.541Z,2.76
2023-04-04T23:26:19.559Z,2.73
2023-04-04T23:29:19.627Z,2.72
2023-04-04T23:32:20.571Z,2.74
2023-04-04T23:35:21.599Z,2.71
2023-04-04T23:38:21.640Z,2.71
2023-04-04T23:41:23.600Z,2.69
2023-04-04T23:44:26.683Z,2.68
2023-04-04T23:47:26.593Z,2.66
2023-04-04T23:50:33.629Z,2.68
2023-04-04T23:53:34.580Z,2.70
2023-04-04T23:56:37.619Z,2.73
2023-04-04T23:59:40.616Z,2.76
